sensor_id;sensor_type;location;lat;lon;timestamp;pressure;altitude;pressure_sealevel;temperature;humidity
6038;BME280;3047;42.600;23.470;2022-07-29T00:01:48;93276.13;;;19.85;100.00
6038;BME280;3047;42.600;23.470;2022-07-29T00:04:19;93272.81;;;19.83;100.00
6038;BME280;3047;42.600;23.470;2022-07-29T00:06:45;93284.53;;;19.87;100.00
6038;BME280;3047;42.600;23.470;2022-07-29T00:09:12;93290.00;;;19.95;100.00
6038;BME280;3047;42.600;23.470;2022-07-29T00:11:39;93273.16;;;19.91;100.00
6038;BME280;3047;42.600;23.470;2022-07-29T00:14:06;93285.06;;;19.92;100.00
6038;BME280;3047;42.600;23.470;2022-07-29T00:16:33;93293.09;;;20.00;100.00
6038;BME280;3047;42.600;23.470;2022-07-29T00:18:59;93299.06;;;20.01;100.00
6038;BME280;3047;42.600;23.470;2022-07-29T00:21:28;93299.16;;;19.99;100.00
6038;BME280;3047;42.600;23.470;2022-07-29T00:23:54;93304.84;;;19.90;100.00
6038;BME280;3047;42.600;23.470;2022-07-29T00:26:21;93302.66;;;19.84;100.00
6038;BME280;3047;42.600;23.470;2022-07-29T00:28:48;93293.22;;;19.85;100.00
6038;BME280;3047;42.600;23.470;2022-07-29T00:31:14;93307.41;;;19.90;100.00
6038;BME280;3047;42.600;23.470;2022-07-29T00:33:41;93293.88;;;19.74;100.00
6038;BME280;3047;42.600;23.470;2022-07-29T00:36:08;93306.88;;;19.71;100.00
6038;BME280;3047;42.600;23.470;2022-07-29T00:38:35;93298.25;;;19.72;100.00
6038;BME280;3047;42.600;23.470;2022-07-29T00:41:02;93283.78;;;19.57;100.00
6038;BME280;3047;42.600;23.470;2022-07-29T00:43:28;93299.84;;;19.74;100.00
6038;BME280;3047;42.600;23.470;2022-07-29T00:45:55;93285.91;;;19.64;100.00
6038;BME280;3047;42.600;23.470;2022-07-29T00:48:22;93281.00;;;19.61;100.00
6038;BME280;3047;42.600;23.470;2022-07-29T00:50:49;93278.97;;;19.66;100.00
6038;BME280;3047;42.600;23.470;2022-07-29T00:53:16;93285.56;;;19.70;100.00
6038;BME280;3047;42.600;23.470;2022-07-29T00:55:44;93291.13;;;19.63;100.00
6038;BME280;3047;42.600;23.470;2022-07-29T00:58:12;93280.31;;;19.58;100.00
6038;BME280;3047;42.600;23.470;2022-07-29T01:00:39;93287.38;;;19.54;100.00
6038;BME280;3047;42.600;23.470;2022-07-29T01:03:06;93289.81;;;19.56;100.00
6038;BME280;3047;42.600;23.470;2022-07-29T01:05:34;93297.50;;;19.56;100.00
6038;BME280;3047;42.600;23.470;2022-07-29T01:08:01;93295.78;;;19.42;100.00
6038;BME280;3047;42.600;23.470;2022-07-29T01:10:28;93289.84;;;19.41;100.00
6038;BME280;3047;42.600;23.470;2022-07-29T01:12:58;93261.19;;;19.35;100.00
6038;BME280;3047;42.600;23.470;2022-07-29T01:15:26;93281.31;;;19.41;100.00
6038;BME280;3047;42.600;23.470;2022-07-29T01:18:00;93278.84;;;19.39;100.00
6038;BME280;3047;42.600;23.470;2022-07-29T01:20:38;93280.97;;;19.33;100.00
6038;BME280;3047;42.600;23.470;2022-07-29T01:23:46;93274.91;;;19.34;100.00
6038;BME280;3047;42.600;23.470;2022-07-29T01:26:33;93277.03;;;19.41;100.00
6038;BME280;3047;42.600;23.470;2022-07-29T01:29:05;93272.81;;;19.55;100.00
6038;BME280;3047;42.600;23.470;2022-07-29T01:31:38;93280.16;;;19.61;100.00
6038;BME280;3047;42.600;23.470;2022-07-29T01:34:08;93275.09;;;19.59;100.00
6038;BME280;3047;42.600;23.470;2022-07-29T01:36:42;93271.72;;;19.59;100.00
6038;BME280;3047;42.600;23.470;2022-07-29T01:39:14;93267.25;;;19.62;100.00
6038;BME280;3047;42.600;23.470;2022-07-29T01:41:48;93274.31;;;19.73;100.00
6038;BME280;3047;42.600;23.470;2022-07-29T01:44:20;93255.97;;;19.50;100.00
6038;BME280;3047;42.600;23.470;2022-07-29T01:46:52;93248.75;;;19.71;100.00
6038;BME280;3047;42.600;23.470;2022-07-29T01:49:22;93261.56;;;19.71;100.00
6038;BME280;3047;42.600;23.470;2022-07-29T01:51:53;93250.59;;;19.69;100.00
6038;BME280;3047;42.600;23.470;2022-07-29T01:54:26;93253.53;;;19.78;100.00
6038;BME280;3047;42.600;23.470;2022-07-29T01:56:56;93240.88;;;19.74;100.00
6038;BME280;3047;42.600;23.470;2022-07-29T01:59:25;93257.88;;;19.90;100.00
6038;BME280;3047;42.600;23.470;2022-07-29T02:01:54;93260.88;;;19.96;100.00
6038;BME280;3047;42.600;23.470;2022-07-29T02:04:21;93260.69;;;19.99;100.00
6038;BME280;3047;42.600;23.470;2022-07-29T02:06:51;93237.84;;;19.82;100.00
6038;BME280;3047;42.600;23.470;2022-07-29T02:09:21;93251.66;;;19.94;100.00
6038;BME280;3047;42.600;23.470;2022-07-29T02:11:52;93250.00;;;19.93;100.00
6038;BME280;3047;42.600;23.470;2022-07-29T02:14:22;93246.31;;;19.97;100.00
6038;BME280;3047;42.600;23.470;2022-07-29T02:16:52;93241.88;;;20.13;100.00
6038;BME280;3047;42.600;23.470;2022-07-29T02:19:22;93239.88;;;20.18;100.00
6038;BME280;3047;42.600;23.470;2022-07-29T02:21:52;93244.66;;;20.10;100.00
6038;BME280;3047;42.600;23.470;2022-07-29T02:24:21;93243.66;;;19.98;100.00
6038;BME280;3047;42.600;23.470;2022-07-29T02:26:50;93250.72;;;19.95;100.00
6038;BME280;3047;42.600;23.470;2022-07-29T02:29:19;93236.97;;;19.96;100.00
6038;BME280;3047;42.600;23.470;2022-07-29T02:31:48;93170.69;;;19.63;100.00
6038;BME280;3047;42.600;23.470;2022-07-29T02:34:18;93252.34;;;20.10;100.00
6038;BME280;3047;42.600;23.470;2022-07-29T02:36:46;93256.38;;;20.14;100.00
6038;BME280;3047;42.600;23.470;2022-07-29T02:39:14;93227.72;;;20.08;100.00
6038;BME280;3047;42.600;23.470;2022-07-29T02:41:44;93250.00;;;20.20;100.00
6038;BME280;3047;42.600;23.470;2022-07-29T02:44:14;93248.09;;;20.23;100.00
6038;BME280;3047;42.600;23.470;2022-07-29T02:46:46;93244.09;;;20.32;100.00
6038;BME280;3047;42.600;23.470;2022-07-29T02:49:21;93244.41;;;20.28;100.00
6038;BME280;3047;42.600;23.470;2022-07-29T02:51:54;93225.13;;;20.08;100.00
6038;BME280;3047;42.600;23.470;2022-07-29T02:54:31;93248.03;;;20.11;100.00
6038;BME280;3047;42.600;23.470;2022-07-29T02:56:59;93236.97;;;20.10;100.00
6038;BME280;3047;42.600;23.470;2022-07-29T02:59:27;93193.75;;;19.77;100.00
6038;BME280;3047;42.600;23.470;2022-07-29T03:01:58;93231.69;;;19.99;100.00
6038;BME280;3047;42.600;23.470;2022-07-29T03:04:29;93244.31;;;20.02;100.00
6038;BME280;3047;42.600;23.470;2022-07-29T03:06:59;93240.19;;;19.99;100.00
6038;BME280;3047;42.600;23.470;2022-07-29T03:09:26;93207.72;;;19.86;100.00
6038;BME280;3047;42.600;23.470;2022-07-29T03:11:54;93252.56;;;20.20;100.00
6038;BME280;3047;42.600;23.470;2022-07-29T03:14:22;93234.97;;;20.28;100.00
6038;BME280;3047;42.600;23.470;2022-07-29T03:16:50;93233.81;;;20.19;100.00
6038;BME280;3047;42.600;23.470;2022-07-29T03:19:17;93241.13;;;20.25;100.00
6038;BME280;3047;42.600;23.470;2022-07-29T03:21:46;93243.53;;;20.14;100.00
6038;BME280;3047;42.600;23.470;2022-07-29T03:24:25;93240.50;;;20.22;100.00
6038;BME280;3047;42.600;23.470;2022-07-29T03:26:52;93235.25;;;20.23;100.00
6038;BME280;3047;42.600;23.470;2022-07-29T03:29:18;93234.88;;;20.30;100.00
6038;BME280;3047;42.600;23.470;2022-07-29T03:31:45;93238.63;;;20.24;100.00
6038;BME280;3047;42.600;23.470;2022-07-29T03:34:12;93235.09;;;20.12;100.00
6038;BME280;3047;42.600;23.470;2022-07-29T03:36:39;93218.97;;;19.97;100.00
6038;BME280;3047;42.600;23.470;2022-07-29T03:39:07;93225.00;;;20.23;100.00
6038;BME280;3047;42.600;23.470;2022-07-29T03:41:35;93233.47;;;20.38;100.00
6038;BME280;3047;42.600;23.470;2022-07-29T03:44:04;93237.34;;;20.31;100.00
6038;BME280;3047;42.600;23.470;2022-07-29T03:46:33;93210.19;;;20.14;100.00
6038;BME280;3047;42.600;23.470;2022-07-29T03:49:03;93205.63;;;20.05;100.00
6038;BME280;3047;42.600;23.470;2022-07-29T03:51:31;93223.78;;;20.02;100.00
6038;BME280;3047;42.600;23.470;2022-07-29T03:53:58;93251.44;;;19.97;100.00
6038;BME280;3047;42.600;23.470;2022-07-29T03:56:27;93205.56;;;19.65;100.00
6038;BME280;3047;42.600;23.470;2022-07-29T03:58:55;93255.41;;;19.88;100.00
6038;BME280;3047;42.600;23.470;2022-07-29T04:01:22;93249.28;;;19.76;100.00
6038;BME280;3047;42.600;23.470;2022-07-29T04:03:50;93233.84;;;19.64;100.00
6038;BME280;3047;42.600;23.470;2022-07-29T04:06:17;93250.13;;;19.77;100.00
6038;BME280;3047;42.600;23.470;2022-07-29T04:08:44;93251.84;;;19.91;100.00
6038;BME280;3047;42.600;23.470;2022-07-29T04:11:11;93255.75;;;19.96;100.00
6038;BME280;3047;42.600;23.470;2022-07-29T04:13:39;93244.59;;;19.97;100.00
6038;BME280;3047;42.600;23.470;2022-07-29T04:16:06;93247.28;;;20.09;100.00
6038;BME280;3047;42.600;23.470;2022-07-29T04:18:32;93247.28;;;20.09;100.00
6038;BME280;3047;42.600;23.470;2022-07-29T04:20:59;93247.78;;;20.01;100.00
6038;BME280;3047;42.600;23.470;2022-07-29T04:23:26;93248.22;;;20.08;100.00
6038;BME280;3047;42.600;23.470;2022-07-29T04:25:53;93220.19;;;19.78;100.00
6038;BME280;3047;42.600;23.470;2022-07-29T04:28:20;93253.75;;;19.87;100.00
6038;BME280;3047;42.600;23.470;2022-07-29T04:30:48;93251.38;;;19.84;100.00
6038;BME280;3047;42.600;23.470;2022-07-29T04:33:14;93250.22;;;19.75;100.00
6038;BME280;3047;42.600;23.470;2022-07-29T04:35:41;93247.81;;;19.72;100.00
6038;BME280;3047;42.600;23.470;2022-07-29T04:38:08;93253.41;;;19.93;100.00
6038;BME280;3047;42.600;23.470;2022-07-29T04:40:34;93254.28;;;20.07;100.00
6038;BME280;3047;42.600;23.470;2022-07-29T04:43:01;93175.94;;;19.88;100.00
6038;BME280;3047;42.600;23.470;2022-07-29T04:45:28;93254.16;;;20.49;100.00
6038;BME280;3047;42.600;23.470;2022-07-29T04:47:56;93254.78;;;20.53;100.00
6038;BME280;3047;42.600;23.470;2022-07-29T04:50:23;93241.22;;;20.51;100.00
6038;BME280;3047;42.600;23.470;2022-07-29T04:52:50;93260.88;;;20.78;100.00
6038;BME280;3047;42.600;23.470;2022-07-29T04:55:16;93250.75;;;20.89;100.00
6038;BME280;3047;42.600;23.470;2022-07-29T04:57:43;93262.28;;;20.96;100.00
6038;BME280;3047;42.600;23.470;2022-07-29T05:00:10;93265.84;;;21.06;100.00
6038;BME280;3047;42.600;23.470;2022-07-29T05:02:37;93262.78;;;21.14;100.00
6038;BME280;3047;42.600;23.470;2022-07-29T05:05:06;93268.47;;;21.32;100.00
6038;BME280;3047;42.600;23.470;2022-07-29T05:07:33;93269.41;;;21.43;100.00
6038;BME280;3047;42.600;23.470;2022-07-29T05:10:00;93275.38;;;21.57;100.00
6038;BME280;3047;42.600;23.470;2022-07-29T05:12:27;93274.31;;;21.72;100.00
6038;BME280;3047;42.600;23.470;2022-07-29T05:14:54;93271.94;;;21.82;100.00
6038;BME280;3047;42.600;23.470;2022-07-29T05:17:20;93278.78;;;21.94;100.00
6038;BME280;3047;42.600;23.470;2022-07-29T05:19:47;93281.44;;;22.05;100.00
6038;BME280;3047;42.600;23.470;2022-07-29T05:22:17;93276.78;;;22.23;100.00
6038;BME280;3047;42.600;23.470;2022-07-29T05:24:44;93279.59;;;22.44;100.00
6038;BME280;3047;42.600;23.470;2022-07-29T05:27:11;93278.50;;;22.59;100.00
6038;BME280;3047;42.600;23.470;2022-07-29T05:29:38;93284.63;;;22.69;100.00
6038;BME280;3047;42.600;23.470;2022-07-29T05:32:05;93275.84;;;22.72;100.00
6038;BME280;3047;42.600;23.470;2022-07-29T05:34:31;93280.72;;;22.88;100.00
6038;BME280;3047;42.600;23.470;2022-07-29T05:36:58;93276.56;;;22.98;100.00
6038;BME280;3047;42.600;23.470;2022-07-29T05:39:26;93284.00;;;23.14;100.00
6038;BME280;3047;42.600;23.470;2022-07-29T05:41:53;93287.88;;;23.19;100.00
6038;BME280;3047;42.600;23.470;2022-07-29T05:44:20;93290.81;;;23.26;100.00
6038;BME280;3047;42.600;23.470;2022-07-29T05:46:47;93287.31;;;23.27;100.00
6038;BME280;3047;42.600;23.470;2022-07-29T05:49:13;93265.34;;;22.99;100.00
6038;BME280;3047;42.600;23.470;2022-07-29T05:51:40;93296.06;;;23.25;100.00
6038;BME280;3047;42.600;23.470;2022-07-29T05:54:07;93297.25;;;23.32;100.00
6038;BME280;3047;42.600;23.470;2022-07-29T05:56:37;93270.31;;;23.13;100.00
6038;BME280;3047;42.600;23.470;2022-07-29T05:59:03;93294.22;;;23.27;100.00
6038;BME280;3047;42.600;23.470;2022-07-29T06:01:30;93295.50;;;23.32;100.00
6038;BME280;3047;42.600;23.470;2022-07-29T06:03:57;93291.97;;;23.33;100.00
6038;BME280;3047;42.600;23.470;2022-07-29T06:06:24;93289.75;;;23.29;100.00
6038;BME280;3047;42.600;23.470;2022-07-29T06:08:51;93296.44;;;23.31;100.00
6038;BME280;3047;42.600;23.470;2022-07-29T06:11:18;93299.16;;;23.30;100.00
6038;BME280;3047;42.600;23.470;2022-07-29T06:13:46;93266.41;;;23.08;100.00
6038;BME280;3047;42.600;23.470;2022-07-29T06:16:12;93296.78;;;23.27;100.00
6038;BME280;3047;42.600;23.470;2022-07-29T06:18:39;93287.28;;;23.16;100.00
6038;BME280;3047;42.600;23.470;2022-07-29T06:21:08;93310.38;;;23.29;100.00
6038;BME280;3047;42.600;23.470;2022-07-29T06:23:35;93297.38;;;23.30;100.00
6038;BME280;3047;42.600;23.470;2022-07-29T06:26:03;93288.34;;;23.13;100.00
6038;BME280;3047;42.600;23.470;2022-07-29T06:28:30;93240.66;;;22.84;100.00
6038;BME280;3047;42.600;23.470;2022-07-29T06:30:58;93245.94;;;22.82;100.00
6038;BME280;3047;42.600;23.470;2022-07-29T06:33:24;93301.13;;;23.26;100.00
6038;BME280;3047;42.600;23.470;2022-07-29T06:35:51;93303.00;;;23.35;100.00
6038;BME280;3047;42.600;23.470;2022-07-29T06:38:18;93305.47;;;23.37;100.00
6038;BME280;3047;42.600;23.470;2022-07-29T06:40:45;93303.84;;;23.36;100.00
6038;BME280;3047;42.600;23.470;2022-07-29T06:43:31;93298.34;;;23.40;100.00
6038;BME280;3047;42.600;23.470;2022-07-29T06:46:05;93300.56;;;23.45;100.00
6038;BME280;3047;42.600;23.470;2022-07-29T06:48:32;93303.72;;;23.49;100.00
6038;BME280;3047;42.600;23.470;2022-07-29T06:51:00;93299.53;;;23.59;100.00
6038;BME280;3047;42.600;23.470;2022-07-29T06:53:27;93302.56;;;23.53;100.00
6038;BME280;3047;42.600;23.470;2022-07-29T06:55:53;93301.28;;;23.47;100.00
6038;BME280;3047;42.600;23.470;2022-07-29T06:58:20;93296.50;;;23.54;100.00
6038;BME280;3047;42.600;23.470;2022-07-29T07:00:47;93305.31;;;23.74;98.59
6038;BME280;3047;42.600;23.470;2022-07-29T07:03:16;93305.31;;;23.74;98.38
6038;BME280;3047;42.600;23.470;2022-07-29T07:05:43;93306.25;;;23.73;94.46
6038;BME280;3047;42.600;23.470;2022-07-29T07:08:11;93290.31;;;23.67;96.64
6038;BME280;3047;42.600;23.470;2022-07-29T07:10:38;93281.63;;;23.68;97.61
6038;BME280;3047;42.600;23.470;2022-07-29T07:13:05;93307.66;;;23.88;93.29
6038;BME280;3047;42.600;23.470;2022-07-29T07:15:32;93279.53;;;23.85;95.13
6038;BME280;3047;42.600;23.470;2022-07-29T07:17:59;93308.94;;;24.05;94.08
6038;BME280;3047;42.600;23.470;2022-07-29T07:20:27;93306.38;;;24.16;92.74
6038;BME280;3047;42.600;23.470;2022-07-29T07:22:54;93300.16;;;24.18;95.02
6038;BME280;3047;42.600;23.470;2022-07-29T07:25:21;93302.25;;;24.25;91.59
6038;BME280;3047;42.600;23.470;2022-07-29T07:27:47;93302.47;;;24.33;92.97
6038;BME280;3047;42.600;23.470;2022-07-29T07:30:14;93305.06;;;24.44;91.61
6038;BME280;3047;42.600;23.470;2022-07-29T07:32:41;93297.16;;;24.57;94.54
6038;BME280;3047;42.600;23.470;2022-07-29T07:35:09;93297.59;;;24.62;91.15
6038;BME280;3047;42.600;23.470;2022-07-29T07:37:38;93291.59;;;24.73;93.35
6038;BME280;3047;42.600;23.470;2022-07-29T07:40:07;93286.69;;;24.90;92.18
6038;BME280;3047;42.600;23.470;2022-07-29T07:42:34;93291.66;;;25.14;89.65
6038;BME280;3047;42.600;23.470;2022-07-29T07:45:01;93284.81;;;25.25;91.68
6038;BME280;3047;42.600;23.470;2022-07-29T07:47:28;93285.38;;;25.49;88.83
6038;BME280;3047;42.600;23.470;2022-07-29T07:49:54;93285.16;;;25.62;82.57
6038;BME280;3047;42.600;23.470;2022-07-29T07:52:21;93282.31;;;25.86;82.64
6038;BME280;3047;42.600;23.470;2022-07-29T07:54:50;93281.44;;;26.16;76.33
6038;BME280;3047;42.600;23.470;2022-07-29T07:57:16;93273.06;;;26.43;75.88
6038;BME280;3047;42.600;23.470;2022-07-29T07:59:43;93278.72;;;26.77;72.98
6038;BME280;3047;42.600;23.470;2022-07-29T08:02:10;93274.91;;;26.91;71.96
6038;BME280;3047;42.600;23.470;2022-07-29T08:04:36;93274.91;;;27.01;72.49
6038;BME280;3047;42.600;23.470;2022-07-29T08:07:06;93263.69;;;27.29;68.58
6038;BME280;3047;42.600;23.470;2022-07-29T08:09:34;93274.44;;;27.54;67.66
6038;BME280;3047;42.600;23.470;2022-07-29T08:12:03;93262.28;;;27.64;66.01
6038;BME280;3047;42.600;23.470;2022-07-29T08:14:31;93280.22;;;27.95;64.22
6038;BME280;3047;42.600;23.470;2022-07-29T08:16:58;93279.31;;;28.14;64.21
6038;BME280;3047;42.600;23.470;2022-07-29T08:19:25;93285.50;;;28.40;61.73
6038;BME280;3047;42.600;23.470;2022-07-29T08:21:52;93269.31;;;28.46;60.88
6038;BME280;3047;42.600;23.470;2022-07-29T08:24:19;93270.31;;;28.81;60.53
6038;BME280;3047;42.600;23.470;2022-07-29T08:27:05;93272.84;;;29.08;58.71
6038;BME280;3047;42.600;23.470;2022-07-29T08:29:32;93271.88;;;29.27;57.39
6038;BME280;3047;42.600;23.470;2022-07-29T08:31:59;93268.72;;;29.42;58.27
6038;BME280;3047;42.600;23.470;2022-07-29T08:34:26;93258.28;;;29.60;55.95
6038;BME280;3047;42.600;23.470;2022-07-29T08:36:54;93244.69;;;29.66;57.22
6038;BME280;3047;42.600;23.470;2022-07-29T08:39:21;93236.44;;;29.78;53.70
6038;BME280;3047;42.600;23.470;2022-07-29T08:41:48;93264.91;;;30.06;56.48
6038;BME280;3047;42.600;23.470;2022-07-29T08:44:17;93237.06;;;30.07;57.48
6038;BME280;3047;42.600;23.470;2022-07-29T08:46:44;93258.31;;;30.28;55.54
6038;BME280;3047;42.600;23.470;2022-07-29T08:49:11;93215.06;;;30.09;55.35
6038;BME280;3047;42.600;23.470;2022-07-29T08:51:39;93239.59;;;30.33;55.20
6038;BME280;3047;42.600;23.470;2022-07-29T08:54:08;93259.41;;;30.68;54.20
6038;BME280;3047;42.600;23.470;2022-07-29T08:56:35;93244.06;;;30.65;54.43
6038;BME280;3047;42.600;23.470;2022-07-29T08:59:05;93261.91;;;31.02;54.81
6038;BME280;3047;42.600;23.470;2022-07-29T09:01:37;93262.09;;;31.09;55.61
6038;BME280;3047;42.600;23.470;2022-07-29T09:04:06;93258.50;;;31.10;54.90
6038;BME280;3047;42.600;23.470;2022-07-29T09:06:37;93230.28;;;30.97;54.41
6038;BME280;3047;42.600;23.470;2022-07-29T09:09:08;93256.19;;;31.15;55.66
6038;BME280;3047;42.600;23.470;2022-07-29T09:11:35;93214.31;;;31.00;54.62
6038;BME280;3047;42.600;23.470;2022-07-29T09:14:05;93259.66;;;31.40;57.43
6038;BME280;3047;42.600;23.470;2022-07-29T09:16:51;93237.94;;;31.39;57.38
6038;BME280;3047;42.600;23.470;2022-07-29T09:19:26;93261.91;;;31.59;54.47
6038;BME280;3047;42.600;23.470;2022-07-29T09:21:55;93252.63;;;31.57;55.60
6038;BME280;3047;42.600;23.470;2022-07-29T09:24:24;93263.84;;;31.73;57.02
6038;BME280;3047;42.600;23.470;2022-07-29T09:26:51;93238.41;;;31.59;59.44
6038;BME280;3047;42.600;23.470;2022-07-29T09:29:19;93265.78;;;31.88;58.95
6038;BME280;3047;42.600;23.470;2022-07-29T09:31:49;93259.91;;;31.94;54.50
6038;BME280;3047;42.600;23.470;2022-07-29T09:34:22;93271.97;;;32.03;54.03
6038;BME280;3047;42.600;23.470;2022-07-29T09:36:51;93247.00;;;31.92;53.25
6038;BME280;3047;42.600;23.470;2022-07-29T09:39:27;93263.13;;;32.04;51.21
6038;BME280;3047;42.600;23.470;2022-07-29T09:41:56;93234.25;;;31.97;49.29
6038;BME280;3047;42.600;23.470;2022-07-29T09:44:24;93258.06;;;32.11;53.66
6038;BME280;3047;42.600;23.470;2022-07-29T09:47:00;93262.22;;;32.28;47.90
6038;BME280;3047;42.600;23.470;2022-07-29T09:49:31;93248.22;;;32.21;50.96
6038;BME280;3047;42.600;23.470;2022-07-29T09:52:00;93244.78;;;32.20;49.40
6038;BME280;3047;42.600;23.470;2022-07-29T09:54:29;93252.91;;;32.34;52.63
6038;BME280;3047;42.600;23.470;2022-07-29T09:57:05;93244.69;;;32.37;49.73
6038;BME280;3047;42.600;23.470;2022-07-29T09:59:33;93182.41;;;32.17;54.77
6038;BME280;3047;42.600;23.470;2022-07-29T10:02:01;93243.91;;;32.67;55.14
6038;BME280;3047;42.600;23.470;2022-07-29T10:04:38;93234.91;;;32.70;49.75
6038;BME280;3047;42.600;23.470;2022-07-29T10:07:05;93228.50;;;32.72;49.08
6038;BME280;3047;42.600;23.470;2022-07-29T10:09:33;93218.03;;;32.72;47.39
6038;BME280;3047;42.600;23.470;2022-07-29T10:12:06;93194.88;;;32.61;46.53
6038;BME280;3047;42.600;23.470;2022-07-29T10:14:33;93224.16;;;32.88;48.24
6038;BME280;3047;42.600;23.470;2022-07-29T10:17:03;93208.97;;;32.83;48.07
6038;BME280;3047;42.600;23.470;2022-07-29T10:19:31;93224.31;;;32.94;45.19
6038;BME280;3047;42.600;23.470;2022-07-29T10:21:59;93224.78;;;32.98;44.23
6038;BME280;3047;42.600;23.470;2022-07-29T10:24:26;93205.66;;;32.89;43.92
6038;BME280;3047;42.600;23.470;2022-07-29T10:26:54;93210.88;;;32.89;46.87
6038;BME280;3047;42.600;23.470;2022-07-29T10:29:23;93207.97;;;32.84;45.20
6038;BME280;3047;42.600;23.470;2022-07-29T10:32:06;93129.66;;;32.37;46.67
6038;BME280;3047;42.600;23.470;2022-07-29T10:34:43;93211.88;;;32.88;46.94
6038;BME280;3047;42.600;23.470;2022-07-29T10:37:16;93205.03;;;32.87;48.76
6038;BME280;3047;42.600;23.470;2022-07-29T10:39:54;93142.53;;;32.46;45.19
6038;BME280;3047;42.600;23.470;2022-07-29T10:42:28;93188.78;;;32.92;48.21
6038;BME280;3047;42.600;23.470;2022-07-29T10:44:57;93161.00;;;32.91;49.48
6038;BME280;3047;42.600;23.470;2022-07-29T10:47:26;93202.50;;;33.17;49.40
6038;BME280;3047;42.600;23.470;2022-07-29T10:49:58;93188.94;;;32.98;44.06
6038;BME280;3047;42.600;23.470;2022-07-29T10:52:25;93195.84;;;32.91;45.19
6038;BME280;3047;42.600;23.470;2022-07-29T10:55:30;93189.94;;;32.89;45.51
6038;BME280;3047;42.600;23.470;2022-07-29T10:58:12;93160.94;;;32.53;44.70
6038;BME280;3047;42.600;23.470;2022-07-29T11:00:43;93133.69;;;32.47;45.61
6038;BME280;3047;42.600;23.470;2022-07-29T11:03:49;93190.00;;;32.81;48.46
6038;BME280;3047;42.600;23.470;2022-07-29T11:06:18;93183.72;;;32.98;45.41
6038;BME280;3047;42.600;23.470;2022-07-29T11:08:45;93183.00;;;33.05;43.55
6038;BME280;3047;42.600;23.470;2022-07-29T11:11:31;93150.03;;;32.72;43.74
6038;BME280;3047;42.600;23.470;2022-07-29T11:14:02;93154.09;;;32.75;43.92
6038;BME280;3047;42.600;23.470;2022-07-29T11:17:00;93189.03;;;32.82;44.54
6038;BME280;3047;42.600;23.470;2022-07-29T11:19:34;93129.22;;;32.56;44.06
6038;BME280;3047;42.600;23.470;2022-07-29T11:22:08;93155.84;;;32.83;42.61
6038;BME280;3047;42.600;23.470;2022-07-29T11:24:35;93179.22;;;33.07;48.35
6038;BME280;3047;42.600;23.470;2022-07-29T11:27:16;93127.34;;;32.88;46.79
6038;BME280;3047;42.600;23.470;2022-07-29T11:29:53;93176.72;;;33.29;41.86
6038;BME280;3047;42.600;23.470;2022-07-29T11:32:25;93172.84;;;33.25;42.74
6038;BME280;3047;42.600;23.470;2022-07-29T11:35:14;93169.81;;;33.13;43.05
6038;BME280;3047;42.600;23.470;2022-07-29T11:37:42;93158.09;;;33.09;43.31
6038;BME280;3047;42.600;23.470;2022-07-29T11:40:16;93162.50;;;33.08;42.02
6038;BME280;3047;42.600;23.470;2022-07-29T11:42:47;93165.66;;;33.04;42.10
6038;BME280;3047;42.600;23.470;2022-07-29T11:45:18;93163.94;;;32.96;43.18
6038;BME280;3047;42.600;23.470;2022-07-29T11:47:52;93125.03;;;32.70;44.40
6038;BME280;3047;42.600;23.470;2022-07-29T11:50:35;93165.41;;;32.98;43.00
6038;BME280;3047;42.600;23.470;2022-07-29T11:53:12;93161.66;;;32.93;43.17
6038;BME280;3047;42.600;23.470;2022-07-29T11:55:41;93166.31;;;32.83;42.65
6038;BME280;3047;42.600;23.470;2022-07-29T11:58:15;93164.22;;;32.78;42.55
6038;BME280;3047;42.600;23.470;2022-07-29T12:01:05;93004.09;;;31.76;43.88
6038;BME280;3047;42.600;23.470;2022-07-29T12:03:43;92918.47;;;31.09;42.32
6038;BME280;3047;42.600;23.470;2022-07-29T12:06:13;93047.00;;;31.82;42.56
6038;BME280;3047;42.600;23.470;2022-07-29T12:08:41;93077.50;;;31.97;41.77
6038;BME280;3047;42.600;23.470;2022-07-29T12:11:20;93155.50;;;32.32;44.13
6038;BME280;3047;42.600;23.470;2022-07-29T12:14:00;93105.28;;;31.90;44.20
6038;BME280;3047;42.600;23.470;2022-07-29T12:16:37;93160.44;;;32.27;43.63
6038;BME280;3047;42.600;23.470;2022-07-29T12:19:04;93129.94;;;31.88;43.38
6038;BME280;3047;42.600;23.470;2022-07-29T12:21:53;93088.13;;;31.57;43.94
6038;BME280;3047;42.600;23.470;2022-07-29T12:24:42;93056.41;;;31.20;44.35
6038;BME280;3047;42.600;23.470;2022-07-29T12:27:19;92983.97;;;30.83;45.05
6038;BME280;3047;42.600;23.470;2022-07-29T12:30:17;93088.19;;;31.40;45.23
6038;BME280;3047;42.600;23.470;2022-07-29T12:33:20;93162.47;;;31.85;43.84
6038;BME280;3047;42.600;23.470;2022-07-29T12:35:54;93157.53;;;31.82;44.07
6038;BME280;3047;42.600;23.470;2022-07-29T12:38:23;93149.44;;;31.69;44.72
6038;BME280;3047;42.600;23.470;2022-07-29T12:40:54;93103.38;;;31.37;44.46
6038;BME280;3047;42.600;23.470;2022-07-29T12:43:22;93156.91;;;31.72;44.01
6038;BME280;3047;42.600;23.470;2022-07-29T12:45:55;93073.88;;;31.12;44.34
6038;BME280;3047;42.600;23.470;2022-07-29T12:48:34;93116.75;;;31.34;43.93
6038;BME280;3047;42.600;23.470;2022-07-29T12:51:05;93078.16;;;30.96;44.23
6038;BME280;3047;42.600;23.470;2022-07-29T12:53:36;93155.25;;;31.40;44.64
6038;BME280;3047;42.600;23.470;2022-07-29T12:56:04;93057.47;;;30.78;45.51
6038;BME280;3047;42.600;23.470;2022-07-29T12:58:33;93110.06;;;31.15;44.66
6038;BME280;3047;42.600;23.470;2022-07-29T13:01:07;93142.66;;;31.35;45.67
6038;BME280;3047;42.600;23.470;2022-07-29T13:03:45;93089.22;;;31.07;44.64
6038;BME280;3047;42.600;23.470;2022-07-29T13:06:30;93136.97;;;31.32;48.23
6038;BME280;3047;42.600;23.470;2022-07-29T13:09:11;93137.63;;;31.34;46.65
6038;BME280;3047;42.600;23.470;2022-07-29T13:11:39;93133.06;;;31.36;46.22
6038;BME280;3047;42.600;23.470;2022-07-29T13:14:08;93091.03;;;30.98;44.70
6038;BME280;3047;42.600;23.470;2022-07-29T13:19:32;93132.56;;;31.24;46.76
6038;BME280;3047;42.600;23.470;2022-07-29T13:21:59;93090.72;;;30.85;46.67
6038;BME280;3047;42.600;23.470;2022-07-29T13:24:27;93115.69;;;30.87;48.56